Impacts TAF Board
For situational awareness. Not to be used for flight planning purposes.
IDs:

KFHU - Fort Huachuca/Libby, AZ, US

Issued at 2200 UTC 01 Feb 2023
Updated at 2246 UTC 01 Feb 2023
Potential Impact None Slight Moderate High
Time2240Z 01/23Z 02/00Z 02/01Z 02/02Z 02/03Z 02/04Z 02/05Z 02/06Z 02/07Z 02/08Z 02/09Z 02/10Z 02/11Z>>
Type OBS PRVL
  [TEMP]  
PRVL
  [TEMP]  
PRVL
  [TEMP]  
PRVL
  [TEMP]  
PRVL
  [TEMP]  
PRVL PRVL PRVL PRVL PRVL PRVL PRVL PRVL
VIS 10 >6
  [5.59]  
>6
  [5.59]  
>6
  [5.59]  
>6
  [5.59]  
>6
  [5.59]  
>6 >6 >6 >6 >6 >6 >6 >6
CIG 65 --
  [55]  
--
  [55]  
--
  [55]  
--
  [55]  
--
  [55]  
-- -- -- -- -- -- -- --
Cover OVC SCT
  [OVC]  
SCT
  [OVC]  
SCT
  [OVC]  
SCT
  [OVC]  
SCT
  [OVC]  
FEW FEW FEW FEW FEW FEW FEW FEW
FltCat VFR VFR
  [VFR]  
VFR
  [VFR]  
VFR
  [VFR]  
VFR
  [VFR]  
VFR
  [VFR]  
VFR VFR VFR VFR VFR VFR VFR VFR
WX -- VCSH
  [-RA]  
VCSH
  [-RA]  
VCSH
  [-RA]  
VCSH
  [-RA]  
VCSH
  [-RA]  
NSW NSW NSW NSW NSW NSW NSW NSW
WDir 280 140
[140]
140
[140]
140
[140]
140
[140]
140
[140]
250 250 250 250 250 250 250 250
WSpd 8 9
  [9]  
9
  [9]  
9
  [9]  
9
  [9]  
9
  [9]  
9 9 9 9 9 9 9 9
WGst -- --
  [--]  
--
  [--]  
--
  [--]  
--
  [--]  
--
  [--]  
-- -- -- -- -- -- -- --
WSHgt -- --
[--]
--
[--]
--
[--]
--
[--]
--
[--]
-- -- -- -- -- -- -- --
WSDir -- --
[--]
--
[--]
--
[--]
--
[--]
--
[--]
-- -- -- -- -- -- -- --
WSSpd -- --
[--]
--
[--]
--
[--]
--
[--]
--
[--]
-- -- -- -- -- -- -- --
R03/21
XWnd 7 -9 -9 -9 -9 -9 5 5 5 5 5 5 5 5
XGst -- 0 0 0 0 0 -- -- -- -- -- -- -- --
HWnd -4 -2 -2 -2 -2 -2 -8 -8 -8 -8 -8 -8 -8 -8
HGst -- 0 0 0 0 0 -- -- -- -- -- -- -- --
R08/26
XWnd 1 -7 -7 -7 -7 -7 -3 -3 -3 -3 -3 -3 -3 -3
XGst -- 0 0 0 0 0 -- -- -- -- -- -- -- --
HWnd -8 6 6 6 6 6 -8 -8 -8 -8 -8 -8 -8 -8
HGst -- 0 0 0 0 0 -- -- -- -- -- -- -- --
R12/30
XWnd -4 -2 -2 -2 -2 -2 -8 -8 -8 -8 -8 -8 -8 -8
XGst -- 0 0 0 0 0 -- -- -- -- -- -- -- --
HWnd -7 9 9 9 9 9 -5 -5 -5 -5 -5 -5 -5 -5
HGst -- 0 0 0 0 0 -- -- -- -- -- -- -- --

NOTE: LAMP data beyond the time of the TAF data is denoted as LAMP in Type and colored magenta.

Raw TAF
TAF KFHU 012200Z 0122/0304 14009KT 9999 VCSH SCT055 QNH3001INS
  TEMPO 0122/0204 9000 -RA BKN055 OVC070 620554
  BECMG 0204/0205 25009KT 9999 NSW FEW045 QNH3015INS
  BECMG 0218/0219 02009KT 9999 SKC QNH3029INS TX14/0122Z TNM01/0214Z


Raw METAR
KFHU 012240Z AUTO 28008KT 10SM OVC065 12/M03 A3003 RMK AO2 SLP156
KFHU 012155Z AUTO 23007KT 10SM FEW060 12/M05 A3001 RMK AO2 SLP152 T01201051
KFHU 012055Z AUTO 11006KT 10SM SCT070 14/M05 A3002 RMK AO2 SLP152 T01351047 57016
KFHU 011955Z AUTO 13010KT 10SM CLR 14/M06 A3003 RMK AO2 SLP156 T01351062

METAR Board
Radar Display
Forecast Discussion

For situational awareness. Not to be used for flight planning purposes.